sensor_id;sensor_type;location;lat;lon;timestamp;pressure;altitude;pressure_sealevel;temperature
13497;BMP180;6820;49.374;8.452;2022-12-07T00:03:16;100787.78;;;12.20
13497;BMP180;6820;49.374;8.452;2022-12-07T00:07:17;100788.59;;;12.19
13497;BMP180;6820;49.374;8.452;2022-12-07T00:11:25;100789.66;;;12.23
13497;BMP180;6820;49.374;8.452;2022-12-07T00:15:27;100783.97;;;12.27
13497;BMP180;6820;49.374;8.452;2022-12-07T00:19:28;100776.44;;;12.28
13497;BMP180;6820;49.374;8.452;2022-12-07T00:23:30;100774.69;;;12.27
13497;BMP180;6820;49.374;8.452;2022-12-07T00:27:32;100765.53;;;12.17
13497;BMP180;6820;49.374;8.452;2022-12-07T00:31:36;100763.06;;;12.18
13497;BMP180;6820;49.374;8.452;2022-12-07T00:35:40;100756.44;;;12.20
13497;BMP180;6820;49.374;8.452;2022-12-07T00:39:42;100747.25;;;12.22
13497;BMP180;6820;49.374;8.452;2022-12-07T00:43:44;100749.91;;;12.23
13497;BMP180;6820;49.374;8.452;2022-12-07T00:47:46;100746.56;;;12.24
13497;BMP180;6820;49.374;8.452;2022-12-07T00:51:48;100754.25;;;12.26
13497;BMP180;6820;49.374;8.452;2022-12-07T00:55:50;100747.44;;;12.25
13497;BMP180;6820;49.374;8.452;2022-12-07T00:59:51;100746.56;;;12.24
13497;BMP180;6820;49.374;8.452;2022-12-07T01:03:56;100759.16;;;12.23
13497;BMP180;6820;49.374;8.452;2022-12-07T01:07:58;100764.69;;;12.16
13497;BMP180;6820;49.374;8.452;2022-12-07T01:12:00;100761.84;;;12.12
13497;BMP180;6820;49.374;8.452;2022-12-07T01:16:05;100763.81;;;12.16
13497;BMP180;6820;49.374;8.452;2022-12-07T01:20:07;100769.84;;;12.17
13497;BMP180;6820;49.374;8.452;2022-12-07T01:24:10;100766.53;;;12.18
13497;BMP180;6820;49.374;8.452;2022-12-07T01:28:12;100774.03;;;12.17
13497;BMP180;6820;49.374;8.452;2022-12-07T01:32:13;100770.00;;;12.20
13497;BMP180;6820;49.374;8.452;2022-12-07T01:36:21;100755.75;;;12.22
13497;BMP180;6820;49.374;8.452;2022-12-07T01:40:23;100754.06;;;12.23
13497;BMP180;6820;49.374;8.452;2022-12-07T01:44:31;100760.81;;;12.22
13497;BMP180;6820;49.374;8.452;2022-12-07T01:48:38;100749.69;;;12.20
13497;BMP180;6820;49.374;8.452;2022-12-07T01:52:43;100753.19;;;12.22
13497;BMP180;6820;49.374;8.452;2022-12-07T01:56:52;100736.09;;;12.20
13497;BMP180;6820;49.374;8.452;2022-12-07T02:00:54;100733.50;;;12.18
13497;BMP180;6820;49.374;8.452;2022-12-07T02:04:57;100746.03;;;12.16
13497;BMP180;6820;49.374;8.452;2022-12-07T02:09:00;100767.81;;;12.12
13497;BMP180;6820;49.374;8.452;2022-12-07T02:13:06;100772.88;;;12.12
13497;BMP180;6820;49.374;8.452;2022-12-07T02:17:50;100760.78;;;12.08
13497;BMP180;6820;49.374;8.452;2022-12-07T02:30:45;100749.44;;;11.89
13497;BMP180;6820;49.374;8.452;2022-12-07T02:34:50;100740.06;;;11.88
13497;BMP180;6820;49.374;8.452;2022-12-07T02:39:07;100740.22;;;11.91
13497;BMP180;6820;49.374;8.452;2022-12-07T02:43:16;100730.69;;;11.87
13497;BMP180;6820;49.374;8.452;2022-12-07T02:47:19;100714.50;;;11.72
13497;BMP180;6820;49.374;8.452;2022-12-07T02:51:22;100725.66;;;11.61
13497;BMP180;6820;49.374;8.452;2022-12-07T02:55:29;100731.84;;;11.52
13497;BMP180;6820;49.374;8.452;2022-12-07T03:00:18;100728.53;;;11.53
13497;BMP180;6820;49.374;8.452;2022-12-07T03:17:22;100732.28;;;11.72
13497;BMP180;6820;49.374;8.452;2022-12-07T03:21:34;100720.56;;;11.74
13497;BMP180;6820;49.374;8.452;2022-12-07T03:25:43;100721.53;;;11.76
13497;BMP180;6820;49.374;8.452;2022-12-07T03:29:51;100713.06;;;11.76
13497;BMP180;6820;49.374;8.452;2022-12-07T03:34:01;100702.00;;;11.75
13497;BMP180;6820;49.374;8.452;2022-12-07T03:38:13;100712.94;;;11.74
13497;BMP180;6820;49.374;8.452;2022-12-07T03:42:16;100700.34;;;11.76
13497;BMP180;6820;49.374;8.452;2022-12-07T03:46:42;100696.34;;;11.79
13497;BMP180;6820;49.374;8.452;2022-12-07T03:51:13;100699.56;;;11.77
13497;BMP180;6820;49.374;8.452;2022-12-07T03:55:22;100699.66;;;11.78
13497;BMP180;6820;49.374;8.452;2022-12-07T03:59:26;100707.47;;;11.81
13497;BMP180;6820;49.374;8.452;2022-12-07T04:03:29;100693.00;;;11.80
13497;BMP180;6820;49.374;8.452;2022-12-07T04:07:30;100696.41;;;11.81
13497;BMP180;6820;49.374;8.452;2022-12-07T04:11:32;100707.47;;;11.81
13497;BMP180;6820;49.374;8.452;2022-12-07T04:15:34;100693.00;;;11.80
13497;BMP180;6820;49.374;8.452;2022-12-07T04:19:35;100688.03;;;11.82
13497;BMP180;6820;49.374;8.452;2022-12-07T04:23:37;100698.38;;;11.85
13497;BMP180;6820;49.374;8.452;2022-12-07T04:27:38;100689.78;;;11.83
13497;BMP180;6820;49.374;8.452;2022-12-07T04:31:40;100695.72;;;11.83
13497;BMP180;6820;49.374;8.452;2022-12-07T04:35:43;100693.47;;;11.87
13497;BMP180;6820;49.374;8.452;2022-12-07T04:39:44;100698.66;;;11.89
13497;BMP180;6820;49.374;8.452;2022-12-07T04:43:46;100696.13;;;11.89
13497;BMP180;6820;49.374;8.452;2022-12-07T04:47:47;100696.28;;;11.92
13497;BMP180;6820;49.374;8.452;2022-12-07T04:51:49;100709.75;;;11.91
13497;BMP180;6820;49.374;8.452;2022-12-07T04:55:51;100698.25;;;11.83
13497;BMP180;6820;49.374;8.452;2022-12-07T04:59:53;100685.84;;;11.87
13497;BMP180;6820;49.374;8.452;2022-12-07T05:03:54;100687.81;;;11.91
13497;BMP180;6820;49.374;8.452;2022-12-07T05:07:56;100686.22;;;11.93
13497;BMP180;6820;49.374;8.452;2022-12-07T05:11:57;100688.69;;;11.92
13497;BMP180;6820;49.374;8.452;2022-12-07T05:15:59;100678.59;;;11.93
13497;BMP180;6820;49.374;8.452;2022-12-07T05:20:01;100685.97;;;11.89
13497;BMP180;6820;49.374;8.452;2022-12-07T05:24:04;100687.69;;;11.90
13497;BMP180;6820;49.374;8.452;2022-12-07T05:28:05;100680.88;;;11.89
13497;BMP180;6820;49.374;8.452;2022-12-07T05:32:07;100680.06;;;11.90
13497;BMP180;6820;49.374;8.452;2022-12-07T05:36:09;100682.78;;;11.93
13497;BMP180;6820;49.374;8.452;2022-12-07T05:40:11;100680.38;;;11.94
13497;BMP180;6820;49.374;8.452;2022-12-07T05:44:14;100679.66;;;11.97
13497;BMP180;6820;49.374;8.452;2022-12-07T05:48:16;100675.28;;;11.94
13497;BMP180;6820;49.374;8.452;2022-12-07T05:52:17;100680.38;;;11.94
13497;BMP180;6820;49.374;8.452;2022-12-07T05:56:19;100676.75;;;11.91
13497;BMP180;6820;49.374;8.452;2022-12-07T06:00:21;100682.63;;;11.90
13497;BMP180;6820;49.374;8.452;2022-12-07T06:04:25;100676.56;;;11.88
13497;BMP180;6820;49.374;8.452;2022-12-07T06:08:27;100679.03;;;11.87
13497;BMP180;6820;49.374;8.452;2022-12-07T06:12:28;100674.66;;;11.84
13497;BMP180;6820;49.374;8.452;2022-12-07T06:16:36;100682.25;;;11.84
13497;BMP180;6820;49.374;8.452;2022-12-07T06:20:37;100681.56;;;11.87
13497;BMP180;6820;49.374;8.452;2022-12-07T06:24:39;100682.25;;;11.84
13497;BMP180;6820;49.374;8.452;2022-12-07T06:28:41;100674.47;;;11.81
13497;BMP180;6820;49.374;8.452;2022-12-07T06:32:43;100690.63;;;11.83
13497;BMP180;6820;49.374;8.452;2022-12-07T06:36:45;100681.56;;;11.87
13497;BMP180;6820;49.374;8.452;2022-12-07T06:40:48;100682.44;;;11.87
13497;BMP180;6820;49.374;8.452;2022-12-07T06:44:50;100697.97;;;11.91
13497;BMP180;6820;49.374;8.452;2022-12-07T06:48:52;100694.69;;;11.94
13497;BMP180;6820;49.374;8.452;2022-12-07T06:52:53;100686.31;;;11.95
13497;BMP180;6820;49.374;8.452;2022-12-07T06:56:55;100687.38;;;11.98
13497;BMP180;6820;49.374;8.452;2022-12-07T07:00:56;100695.97;;;12.00
13497;BMP180;6820;49.374;8.452;2022-12-07T07:04:58;100690.69;;;11.97
13497;BMP180;6820;49.374;8.452;2022-12-07T07:08:59;100702.72;;;12.00
13497;BMP180;6820;49.374;8.452;2022-12-07T07:13:02;100694.41;;;12.02
13497;BMP180;6820;49.374;8.452;2022-12-07T07:17:04;100709.88;;;12.07
13497;BMP180;6820;49.374;8.452;2022-12-07T07:21:05;100705.78;;;12.09
13497;BMP180;6820;49.374;8.452;2022-12-07T07:25:07;100707.47;;;12.08
13497;BMP180;6820;49.374;8.452;2022-12-07T07:29:09;100709.38;;;12.12
13497;BMP180;6820;49.374;8.452;2022-12-07T07:33:11;100708.69;;;12.15
13497;BMP180;6820;49.374;8.452;2022-12-07T07:37:13;100714.91;;;12.19
13497;BMP180;6820;49.374;8.452;2022-12-07T07:41:22;100706.72;;;12.23
13497;BMP180;6820;49.374;8.452;2022-12-07T07:45:25;100716.25;;;12.27
13497;BMP180;6820;49.374;8.452;2022-12-07T07:49:27;100710.53;;;12.31
13497;BMP180;6820;49.374;8.452;2022-12-07T07:53:28;100720.13;;;12.35
13497;BMP180;6820;49.374;8.452;2022-12-07T07:57:30;100720.13;;;12.35
13497;BMP180;6820;49.374;8.452;2022-12-07T08:01:31;100719.59;;;12.41
13497;BMP180;6820;49.374;8.452;2022-12-07T08:05:33;100718.03;;;12.43
13497;BMP180;6820;49.374;8.452;2022-12-07T08:09:35;100722.47;;;12.47
13497;BMP180;6820;49.374;8.452;2022-12-07T08:13:37;100723.72;;;12.53
13497;BMP180;6820;49.374;8.452;2022-12-07T08:17:38;100726.44;;;12.56
13497;BMP180;6820;49.374;8.452;2022-12-07T08:21:40;100730.72;;;12.57
13497;BMP180;6820;49.374;8.452;2022-12-07T08:25:42;100736.97;;;12.62
13497;BMP180;6820;49.374;8.452;2022-12-07T08:29:43;100736.28;;;12.64
13497;BMP180;6820;49.374;8.452;2022-12-07T08:33:47;100737.03;;;12.63
13497;BMP180;6820;49.374;8.452;2022-12-07T08:37:48;100732.94;;;12.65
13497;BMP180;6820;49.374;8.452;2022-12-07T08:41:50;100735.63;;;12.68
13497;BMP180;6820;49.374;8.452;2022-12-07T08:46:15;100738.66;;;12.76
13497;BMP180;6820;49.374;8.452;2022-12-07T08:50:18;100735.69;;;12.82
13497;BMP180;6820;49.374;8.452;2022-12-07T08:54:20;100729.97;;;12.86
13497;BMP180;6820;49.374;8.452;2022-12-07T08:58:22;100726.91;;;12.92
13497;BMP180;6820;49.374;8.452;2022-12-07T09:02:24;100727.06;;;12.95
13497;BMP180;6820;49.374;8.452;2022-12-07T09:06:26;100717.59;;;12.92
13497;BMP180;6820;49.374;8.452;2022-12-07T09:10:29;100728.31;;;13.01
13497;BMP180;6820;49.374;8.452;2022-12-07T09:14:31;100731.47;;;13.11
13497;BMP180;6820;49.374;8.452;2022-12-07T09:18:32;100726.00;;;13.20
13497;BMP180;6820;49.374;8.452;2022-12-07T09:22:34;100734.03;;;13.27
13497;BMP180;6820;49.374;8.452;2022-12-07T09:26:36;100740.09;;;13.29
13497;BMP180;6820;49.374;8.452;2022-12-07T09:30:37;100734.72;;;13.39
13497;BMP180;6820;49.374;8.452;2022-12-07T09:34:59;100733.91;;;13.40
13497;BMP180;6820;49.374;8.452;2022-12-07T09:39:01;100731.31;;;13.39
13497;BMP180;6820;49.374;8.452;2022-12-07T09:43:04;100735.06;;;13.45
13497;BMP180;6820;49.374;8.452;2022-12-07T09:47:08;100732.44;;;13.43
13497;BMP180;6820;49.374;8.452;2022-12-07T09:51:15;100729.97;;;13.45
13497;BMP180;6820;49.374;8.452;2022-12-07T09:55:26;100724.88;;;13.45
13497;BMP180;6820;49.374;8.452;2022-12-07T09:59:29;100724.88;;;13.45
13497;BMP180;6820;49.374;8.452;2022-12-07T10:03:38;100708.28;;;13.51
13497;BMP180;6820;49.374;8.452;2022-12-07T10:07:41;100708.59;;;13.57
13497;BMP180;6820;49.374;8.452;2022-12-07T10:12:06;100720.53;;;13.58
13497;BMP180;6820;49.374;8.452;2022-12-07T10:16:32;100713.47;;;13.69
13497;BMP180;6820;49.374;8.452;2022-12-07T10:20:36;100704.81;;;13.81
13497;BMP180;6820;49.374;8.452;2022-12-07T10:24:43;100706.63;;;13.83
13497;BMP180;6820;49.374;8.452;2022-12-07T10:28:47;100711.94;;;13.88
13497;BMP180;6820;49.374;8.452;2022-12-07T10:32:50;100690.66;;;14.01
13497;BMP180;6820;49.374;8.452;2022-12-07T10:36:52;100689.16;;;14.05
13497;BMP180;6820;49.374;8.452;2022-12-07T10:41:05;100685.81;;;14.06
13497;BMP180;6820;49.374;8.452;2022-12-07T10:45:16;100674.09;;;14.09
13497;BMP180;6820;49.374;8.452;2022-12-07T10:49:40;100678.56;;;14.13
13497;BMP180;6820;49.374;8.452;2022-12-07T10:58:25;100670.31;;;14.34
13497;BMP180;6820;49.374;8.452;2022-12-07T11:02:38;100671.59;;;14.27
13497;BMP180;6820;49.374;8.452;2022-12-07T11:07:09;100669.69;;;14.07
13497;BMP180;6820;49.374;8.452;2022-12-07T11:11:13;100669.84;;;13.94
13497;BMP180;6820;49.374;8.452;2022-12-07T11:19:42;100657.53;;;14.01
13497;BMP180;6820;49.374;8.452;2022-12-07T11:24:15;100648.66;;;13.95
13497;BMP180;6820;49.374;8.452;2022-12-07T11:37:21;100641.75;;;13.93
13497;BMP180;6820;49.374;8.452;2022-12-07T11:45:39;100630.94;;;13.81
13497;BMP180;6820;49.374;8.452;2022-12-07T11:49:46;100635.84;;;13.78
13497;BMP180;6820;49.374;8.452;2022-12-07T11:53:57;100630.22;;;13.83
13497;BMP180;6820;49.374;8.452;2022-12-07T11:58:12;100626.63;;;13.80
13497;BMP180;6820;49.374;8.452;2022-12-07T12:02:18;100631.00;;;13.82
13497;BMP180;6820;49.374;8.452;2022-12-07T12:06:24;100625.75;;;13.79
13497;BMP180;6820;49.374;8.452;2022-12-07T12:10:45;100605.22;;;13.92
13497;BMP180;6820;49.374;8.452;2022-12-07T12:19:32;100604.19;;;13.73
13497;BMP180;6820;49.374;8.452;2022-12-07T12:23:44;100607.06;;;13.63
13497;BMP180;6820;49.374;8.452;2022-12-07T12:27:48;100604.19;;;13.57
13497;BMP180;6820;49.374;8.452;2022-12-07T12:32:07;100596.25;;;13.51
13497;BMP180;6820;49.374;8.452;2022-12-07T12:48:28;100593.34;;;13.93
13497;BMP180;6820;49.374;8.452;2022-12-07T13:05:33;100587.28;;;13.91
13497;BMP180;6820;49.374;8.452;2022-12-07T13:09:35;100570.25;;;13.90
13497;BMP180;6820;49.374;8.452;2022-12-07T13:13:37;100580.72;;;13.78
13497;BMP180;6820;49.374;8.452;2022-12-07T13:21:41;100560.91;;;13.73
13497;BMP180;6820;49.374;8.452;2022-12-07T13:30:22;100549.88;;;13.90
13497;BMP180;6820;49.374;8.452;2022-12-07T13:38:33;100535.22;;;14.01
13497;BMP180;6820;49.374;8.452;2022-12-07T13:42:35;100531.09;;;14.03
13497;BMP180;6820;49.374;8.452;2022-12-07T13:46:52;100540.31;;;14.01
13497;BMP180;6820;49.374;8.452;2022-12-07T13:50:56;100531.75;;;14.00
13497;BMP180;6820;49.374;8.452;2022-12-07T13:59:25;100532.25;;;14.10
13497;BMP180;6820;49.374;8.452;2022-12-07T14:03:31;100529.63;;;14.08
13497;BMP180;6820;49.374;8.452;2022-12-07T14:07:33;100519.94;;;14.01
13497;BMP180;6820;49.374;8.452;2022-12-07T14:11:35;100525.94;;;14.02
13497;BMP180;6820;49.374;8.452;2022-12-07T14:15:38;100525.03;;;14.01
13497;BMP180;6820;49.374;8.452;2022-12-07T14:19:43;100525.03;;;14.01
13497;BMP180;6820;49.374;8.452;2022-12-07T14:28:31;100527.81;;;13.90
13497;BMP180;6820;49.374;8.452;2022-12-07T14:32:36;100522.72;;;13.90
13497;BMP180;6820;49.374;8.452;2022-12-07T14:36:38;100534.50;;;13.88
13497;BMP180;6820;49.374;8.452;2022-12-07T14:40:40;100534.28;;;13.84
13497;BMP180;6820;49.374;8.452;2022-12-07T14:44:42;100532.22;;;13.77
13497;BMP180;6820;49.374;8.452;2022-12-07T14:48:44;100525.25;;;13.73
13497;BMP180;6820;49.374;8.452;2022-12-07T14:53:14;100534.72;;;13.75
13497;BMP180;6820;49.374;8.452;2022-12-07T14:57:23;100525.88;;;13.69
13497;BMP180;6820;49.374;8.452;2022-12-07T15:01:25;100526.44;;;13.64
13497;BMP180;6820;49.374;8.452;2022-12-07T15:05:26;100522.16;;;13.63
13497;BMP180;6820;49.374;8.452;2022-12-07T15:09:28;100523.75;;;13.61
13497;BMP180;6820;49.374;8.452;2022-12-07T15:13:30;100532.75;;;13.54
13497;BMP180;6820;49.374;8.452;2022-12-07T15:17:50;100526.41;;;13.46
13497;BMP180;6820;49.374;8.452;2022-12-07T15:21:52;100535.66;;;13.46
13497;BMP180;6820;49.374;8.452;2022-12-07T15:25:54;100532.66;;;13.37
13497;BMP180;6820;49.374;8.452;2022-12-07T15:29:55;100523.84;;;13.31
13497;BMP180;6820;49.374;8.452;2022-12-07T15:33:57;100527.97;;;13.29
13497;BMP180;6820;49.374;8.452;2022-12-07T15:37:59;100524.72;;;13.31
13497;BMP180;6820;49.374;8.452;2022-12-07T15:42:00;100524.16;;;13.21
13497;BMP180;6820;49.374;8.452;2022-12-07T15:46:02;100517.09;;;13.15
13497;BMP180;6820;49.374;8.452;2022-12-07T15:50:06;100517.88;;;13.14
13497;BMP180;6820;49.374;8.452;2022-12-07T15:54:25;100504.06;;;13.09
13497;BMP180;6820;49.374;8.452;2022-12-07T15:58:27;100506.28;;;13.04
13497;BMP180;6820;49.374;8.452;2022-12-07T16:02:29;100510.25;;;12.99
13497;BMP180;6820;49.374;8.452;2022-12-07T16:06:37;100505.78;;;12.95
13497;BMP180;6820;49.374;8.452;2022-12-07T16:10:38;100507.94;;;12.87
13497;BMP180;6820;49.374;8.452;2022-12-07T16:14:43;100512.78;;;12.83
13497;BMP180;6820;49.374;8.452;2022-12-07T16:18:46;100505.31;;;12.72
13497;BMP180;6820;49.374;8.452;2022-12-07T16:22:51;100500.00;;;12.67
13497;BMP180;6820;49.374;8.452;2022-12-07T16:26:53;100497.09;;;12.76
13497;BMP180;6820;49.374;8.452;2022-12-07T16:31:02;100498.22;;;12.80
13497;BMP180;6820;49.374;8.452;2022-12-07T16:35:04;100491.56;;;12.82
13497;BMP180;6820;49.374;8.452;2022-12-07T16:39:07;100486.38;;;12.81
13497;BMP180;6820;49.374;8.452;2022-12-07T16:43:10;100482.88;;;12.79
13497;BMP180;6820;49.374;8.452;2022-12-07T16:47:13;100479.75;;;12.84
13497;BMP180;6820;49.374;8.452;2022-12-07T16:51:15;100478.03;;;12.83
13497;BMP180;6820;49.374;8.452;2022-12-07T16:55:16;100481.44;;;12.84
13497;BMP180;6820;49.374;8.452;2022-12-07T16:59:18;100480.56;;;12.83
13497;BMP180;6820;49.374;8.452;2022-12-07T17:03:20;100472.84;;;12.82
13497;BMP180;6820;49.374;8.452;2022-12-07T17:07:21;100477.22;;;12.84
13497;BMP180;6820;49.374;8.452;2022-12-07T17:11:28;100471.38;;;12.85
13497;BMP180;6820;49.374;8.452;2022-12-07T17:15:32;100471.97;;;12.81
13497;BMP180;6820;49.374;8.452;2022-12-07T17:19:40;100474.38;;;12.78
13497;BMP180;6820;49.374;8.452;2022-12-07T17:23:48;100469.13;;;12.76
13497;BMP180;6820;49.374;8.452;2022-12-07T17:27:50;100476.47;;;12.71
13497;BMP180;6820;49.374;8.452;2022-12-07T17:31:52;100472.34;;;12.73
13497;BMP180;6820;49.374;8.452;2022-12-07T17:35:53;100468.13;;;12.74
13497;BMP180;6820;49.374;8.452;2022-12-07T17:39:55;100470.66;;;12.74
13497;BMP180;6820;49.374;8.452;2022-12-07T17:43:58;100473.03;;;12.71
13497;BMP180;6820;49.374;8.452;2022-12-07T17:48:06;100474.47;;;12.66
13497;BMP180;6820;49.374;8.452;2022-12-07T17:52:08;100459.84;;;12.62
13497;BMP180;6820;49.374;8.452;2022-12-07T17:56:28;100469.00;;;12.58
13497;BMP180;6820;49.374;8.452;2022-12-07T18:00:30;100461.28;;;12.57
13497;BMP180;6820;49.374;8.452;2022-12-07T18:04:37;100457.00;;;12.56
13497;BMP180;6820;49.374;8.452;2022-12-07T18:08:39;100465.50;;;12.56
13497;BMP180;6820;49.374;8.452;2022-12-07T18:12:40;100466.19;;;12.54
13497;BMP180;6820;49.374;8.452;2022-12-07T18:16:45;100464.38;;;12.51
13497;BMP180;6820;49.374;8.452;2022-12-07T18:20:47;100452.38;;;12.49
13497;BMP180;6820;49.374;8.452;2022-12-07T18:24:48;100454.91;;;12.49
13497;BMP180;6820;49.374;8.452;2022-12-07T18:28:50;100450.63;;;12.48
13497;BMP180;6820;49.374;8.452;2022-12-07T18:32:52;100449.66;;;12.46
13497;BMP180;6820;49.374;8.452;2022-12-07T18:36:54;100446.16;;;12.44
13497;BMP180;6820;49.374;8.452;2022-12-07T18:40:55;100448.38;;;12.38
13497;BMP180;6820;49.374;8.452;2022-12-07T18:44:57;100449.06;;;12.36
13497;BMP180;6820;49.374;8.452;2022-12-07T18:48:59;100445.34;;;12.29
13497;BMP180;6820;49.374;8.452;2022-12-07T18:53:04;100444.47;;;12.29
13497;BMP180;6820;49.374;8.452;2022-12-07T18:57:06;100445.06;;;12.25
13497;BMP180;6820;49.374;8.452;2022-12-07T19:01:08;100442.53;;;12.25
13497;BMP180;6820;49.374;8.452;2022-12-07T19:05:09;100437.44;;;12.25
13497;BMP180;6820;49.374;8.452;2022-12-07T19:09:11;100435.00;;;12.26
13497;BMP180;6820;49.374;8.452;2022-12-07T19:13:13;100435.09;;;12.28
13497;BMP180;6820;49.374;8.452;2022-12-07T19:17:15;100430.00;;;12.28
13497;BMP180;6820;49.374;8.452;2022-12-07T19:21:17;100429.13;;;12.27
13497;BMP180;6820;49.374;8.452;2022-12-07T19:25:19;100423.19;;;12.27
13497;BMP180;6820;49.374;8.452;2022-12-07T19:29:20;100429.84;;;12.25
13497;BMP180;6820;49.374;8.452;2022-12-07T19:33:22;100426.25;;;12.21
13497;BMP180;6820;49.374;8.452;2022-12-07T19:37:24;100422.75;;;12.19
13497;BMP180;6820;49.374;8.452;2022-12-07T19:41:25;100430.22;;;12.17
13497;BMP180;6820;49.374;8.452;2022-12-07T19:45:35;100425.84;;;12.14
13497;BMP180;6820;49.374;8.452;2022-12-07T19:49:37;100427.50;;;12.14
13497;BMP180;6820;49.374;8.452;2022-12-07T19:53:39;100429.25;;;12.15
13497;BMP180;6820;49.374;8.452;2022-12-07T19:57:40;100421.47;;;12.12
13497;BMP180;6820;49.374;8.452;2022-12-07T20:01:42;100413.56;;;12.07
13497;BMP180;6820;49.374;8.452;2022-12-07T20:05:44;100410.88;;;12.04
13497;BMP180;6820;49.374;8.452;2022-12-07T20:09:45;100417.47;;;12.01
13497;BMP180;6820;49.374;8.452;2022-12-07T20:13:47;100419.28;;;12.03
13497;BMP180;6820;49.374;8.452;2022-12-07T20:17:48;100418.59;;;12.06
13497;BMP180;6820;49.374;8.452;2022-12-07T20:21:50;100406.69;;;12.05
13497;BMP180;6820;49.374;8.452;2022-12-07T20:25:52;100409.41;;;12.08
13497;BMP180;6820;49.374;8.452;2022-12-07T20:29:53;100418.13;;;12.13
13497;BMP180;6820;49.374;8.452;2022-12-07T20:33:56;100415.56;;;12.13
13497;BMP180;6820;49.374;8.452;2022-12-07T20:38:00;100407.97;;;12.13
13497;BMP180;6820;49.374;8.452;2022-12-07T20:42:01;100406.38;;;12.15
13497;BMP180;6820;49.374;8.452;2022-12-07T20:46:22;100412.09;;;12.11
13497;BMP180;6820;49.374;8.452;2022-12-07T20:50:24;100409.56;;;12.11
13497;BMP180;6820;49.374;8.452;2022-12-07T20:54:25;100409.56;;;12.11
13497;BMP180;6820;49.374;8.452;2022-12-07T20:58:27;100407.47;;;12.04
13497;BMP180;6820;49.374;8.452;2022-12-07T21:02:29;100398.50;;;11.94
13497;BMP180;6820;49.374;8.452;2022-12-07T21:06:31;100391.31;;;11.87
13497;BMP180;6820;49.374;8.452;2022-12-07T21:10:32;100385.25;;;11.86
13497;BMP180;6820;49.374;8.452;2022-12-07T21:14:34;100376.78;;;11.85
13497;BMP180;6820;49.374;8.452;2022-12-07T21:18:36;100379.31;;;11.85
13497;BMP180;6820;49.374;8.452;2022-12-07T21:22:38;100384.50;;;11.87
13497;BMP180;6820;49.374;8.452;2022-12-07T21:26:40;100382.03;;;11.88
13497;BMP180;6820;49.374;8.452;2022-12-07T21:30:41;100379.41;;;11.87
13497;BMP180;6820;49.374;8.452;2022-12-07T21:35:03;100380.34;;;11.88
13497;BMP180;6820;49.374;8.452;2022-12-07T21:39:05;100375.38;;;11.90
13497;BMP180;6820;49.374;8.452;2022-12-07T21:43:07;100362.50;;;11.87
13497;BMP180;6820;49.374;8.452;2022-12-07T21:47:09;100355.59;;;11.85
13497;BMP180;6820;49.374;8.452;2022-12-07T21:51:12;100347.13;;;11.84
13497;BMP180;6820;49.374;8.452;2022-12-07T21:55:14;100350.25;;;11.80
13497;BMP180;6820;49.374;8.452;2022-12-07T21:59:16;100352.63;;;11.77
13497;BMP180;6820;49.374;8.452;2022-12-07T22:03:21;100353.59;;;11.79
13497;BMP180;6820;49.374;8.452;2022-12-07T22:07:23;100347.66;;;11.79
13497;BMP180;6820;49.374;8.452;2022-12-07T22:11:24;100345.81;;;11.76
13497;BMP180;6820;49.374;8.452;2022-12-07T22:15:27;100341.59;;;11.77
13497;BMP180;6820;49.374;8.452;2022-12-07T22:19:29;100335.13;;;11.82
13497;BMP180;6820;49.374;8.452;2022-12-07T22:23:31;100331.00;;;11.84
13497;BMP180;6820;49.374;8.452;2022-12-07T22:27:33;100341.22;;;11.85
13497;BMP180;6820;49.374;8.452;2022-12-07T22:31:35;100320.31;;;11.89
13497;BMP180;6820;49.374;8.452;2022-12-07T22:35:38;100322.91;;;11.90
13497;BMP180;6820;49.374;8.452;2022-12-07T22:39:40;100319.66;;;11.93
13497;BMP180;6820;49.374;8.452;2022-12-07T22:43:41;100316.25;;;11.92
13497;BMP180;6820;49.374;8.452;2022-12-07T22:47:43;100317.78;;;11.89
13497;BMP180;6820;49.374;8.452;2022-12-07T22:51:44;100305.78;;;11.87
13497;BMP180;6820;49.374;8.452;2022-12-07T22:55:46;100314.97;;;11.85
13497;BMP180;6820;49.374;8.452;2022-12-07T22:59:48;100324.31;;;11.86
13497;BMP180;6820;49.374;8.452;2022-12-07T23:03:50;100310.75;;;11.85
13497;BMP180;6820;49.374;8.452;2022-12-07T23:07:52;100317.56;;;11.86
13497;BMP180;6820;49.374;8.452;2022-12-07T23:11:53;100306.31;;;11.81
13497;BMP180;6820;49.374;8.452;2022-12-07T23:16:14;100308.94;;;11.83
13497;BMP180;6820;49.374;8.452;2022-12-07T23:20:15;100310.75;;;11.85
13497;BMP180;6820;49.374;8.452;2022-12-07T23:24:17;100306.56;;;11.86
13497;BMP180;6820;49.374;8.452;2022-12-07T23:28:19;100301.25;;;11.81
13497;BMP180;6820;49.374;8.452;2022-12-07T23:32:20;100300.19;;;11.78
13497;BMP180;6820;49.374;8.452;2022-12-07T23:36:24;100300.13;;;11.76
13497;BMP180;6820;49.374;8.452;2022-12-07T23:40:26;100302.34;;;11.70
13497;BMP180;6820;49.374;8.452;2022-12-07T23:44:28;100292.88;;;11.68
13497;BMP180;6820;49.374;8.452;2022-12-07T23:48:29;100293.50;;;11.64
13497;BMP180;6820;49.374;8.452;2022-12-07T23:52:31;100293.75;;;11.68
13497;BMP180;6820;49.374;8.452;2022-12-07T23:56:32;100287.88;;;11.69
